Sapao, Philippines
Current Conditions -  °F | °C
As of 11:00 PM on Thursday 18 Dec 2014 (Local Time) from RPVM Reporting Station
Overcast Overcast  
Wind Chill: 79°   Ceiling: 9000
Heat Index: 82°   Visibility: 6mi
Dew Point: 75°   Wind: 5mph
Humidity: 89%   Direction: 10°N
Pressure: 29.94"   Gusts: NA
Location:  10.02°N, 126.04°E
Report Text: RPVM 181500Z 01004KT 9999 FEW020 OVC090 26/24 Q1014 RERA RMK A2995
Loading
Personal Weather Stations






























Interactive Weather Map New forecast layout! Learn more

10-Day Weather Forecast

Advertisements
Track Severe Weather on mobile